sensor_id;sensor_type;location;lat;lon;timestamp;P1;durP1;ratioP1;P2;durP2;ratioP2
11685;SDS011;5899;51.282;6.094;2022-10-18T00:00:57;7.77;;;6.33;;
11685;SDS011;5899;51.282;6.094;2022-10-18T00:03:45;7.93;;;6.40;;
11685;SDS011;5899;51.282;6.094;2022-10-18T00:09:17;6.78;;;6.13;;
11685;SDS011;5899;51.282;6.094;2022-10-18T00:11:46;7.32;;;6.53;;
11685;SDS011;5899;51.282;6.094;2022-10-18T00:14:18;8.07;;;6.22;;
11685;SDS011;5899;51.282;6.094;2022-10-18T00:16:59;7.23;;;5.60;;
11685;SDS011;5899;51.282;6.094;2022-10-18T00:20:34;8.70;;;6.60;;
11685;SDS011;5899;51.282;6.094;2022-10-18T00:22:47;7.60;;;6.90;;
11685;SDS011;5899;51.282;6.094;2022-10-18T00:30:53;9.45;;;6.63;;
11685;SDS011;5899;51.282;6.094;2022-10-18T00:33:22;7.75;;;6.55;;
11685;SDS011;5899;51.282;6.094;2022-10-18T00:36:04;7.07;;;6.35;;
11685;SDS011;5899;51.282;6.094;2022-10-18T00:38:33;7.97;;;7.07;;
11685;SDS011;5899;51.282;6.094;2022-10-18T00:41:03;7.50;;;6.25;;
11685;SDS011;5899;51.282;6.094;2022-10-18T00:46:47;6.50;;;5.90;;
11685;SDS011;5899;51.282;6.094;2022-10-18T00:49:15;6.53;;;5.88;;
11685;SDS011;5899;51.282;6.094;2022-10-18T00:57:57;8.52;;;5.93;;
11685;SDS011;5899;51.282;6.094;2022-10-18T01:00:39;7.45;;;6.70;;
11685;SDS011;5899;51.282;6.094;2022-10-18T01:12:40;6.22;;;5.70;;
11685;SDS011;5899;51.282;6.094;2022-10-18T01:15:33;5.88;;;5.25;;
11685;SDS011;5899;51.282;6.094;2022-10-18T01:18:26;5.85;;;5.30;;
11685;SDS011;5899;51.282;6.094;2022-10-18T01:21:06;5.85;;;5.35;;
11685;SDS011;5899;51.282;6.094;2022-10-18T01:38:39;8.30;;;6.60;;
11685;SDS011;5899;51.282;6.094;2022-10-18T01:41:21;7.75;;;6.50;;
11685;SDS011;5899;51.282;6.094;2022-10-18T01:43:51;6.68;;;6.07;;
11685;SDS011;5899;51.282;6.094;2022-10-18T01:49:38;7.60;;;6.28;;
11685;SDS011;5899;51.282;6.094;2022-10-18T01:52:24;7.10;;;6.32;;
11685;SDS011;5899;51.282;6.094;2022-10-18T01:57:38;7.43;;;6.72;;
11685;SDS011;5899;51.282;6.094;2022-10-18T02:01:52;8.63;;;7.82;;
11685;SDS011;5899;51.282;6.094;2022-10-18T02:03:30;8.68;;;7.72;;
11685;SDS011;5899;51.282;6.094;2022-10-18T02:06:04;8.18;;;7.38;;
11685;SDS011;5899;51.282;6.094;2022-10-18T02:11:45;9.25;;;8.35;;
11685;SDS011;5899;51.282;6.094;2022-10-18T02:20:15;9.68;;;8.77;;
11685;SDS011;5899;51.282;6.094;2022-10-18T02:22:49;9.20;;;8.35;;
11685;SDS011;5899;51.282;6.094;2022-10-18T02:25:23;10.55;;;9.55;;
11685;SDS011;5899;51.282;6.094;2022-10-18T02:28:02;10.27;;;9.27;;
11685;SDS011;5899;51.282;6.094;2022-10-18T02:30:50;9.65;;;8.80;;
11685;SDS011;5899;51.282;6.094;2022-10-18T02:33:33;11.75;;;10.65;;
11685;SDS011;5899;51.282;6.094;2022-10-18T02:45:24;15.32;;;13.93;;
11685;SDS011;5899;51.282;6.094;2022-10-18T02:48:06;17.00;;;15.38;;
11685;SDS011;5899;51.282;6.094;2022-10-18T02:51:07;20.08;;;18.05;;
11685;SDS011;5899;51.282;6.094;2022-10-18T02:53:40;20.08;;;18.00;;
11685;SDS011;5899;51.282;6.094;2022-10-18T02:56:22;16.85;;;14.85;;
11685;SDS011;5899;51.282;6.094;2022-10-18T02:58:55;16.75;;;15.13;;
11685;SDS011;5899;51.282;6.094;2022-10-18T03:01:42;15.48;;;14.07;;
11685;SDS011;5899;51.282;6.094;2022-10-18T03:04:15;16.80;;;15.05;;
11685;SDS011;5899;51.282;6.094;2022-10-18T03:06:53;15.35;;;13.95;;
11685;SDS011;5899;51.282;6.094;2022-10-18T03:09:23;16.10;;;14.52;;
11685;SDS011;5899;51.282;6.094;2022-10-18T03:12:00;15.77;;;14.30;;
11685;SDS011;5899;51.282;6.094;2022-10-18T03:14:30;17.25;;;15.65;;
11685;SDS011;5899;51.282;6.094;2022-10-18T03:17:16;15.20;;;13.80;;
11685;SDS011;5899;51.282;6.094;2022-10-18T03:20:06;17.45;;;15.80;;
11685;SDS011;5899;51.282;6.094;2022-10-18T03:22:52;18.15;;;16.42;;
11685;SDS011;5899;51.282;6.094;2022-10-18T03:25:41;18.58;;;16.88;;
11685;SDS011;5899;51.282;6.094;2022-10-18T03:28:23;20.40;;;18.40;;
11685;SDS011;5899;51.282;6.094;2022-10-18T03:30:59;18.38;;;16.67;;
11685;SDS011;5899;51.282;6.094;2022-10-18T03:39:14;16.00;;;14.70;;
11685;SDS011;5899;51.282;6.094;2022-10-18T03:41:57;14.93;;;13.55;;
11685;SDS011;5899;51.282;6.094;2022-10-18T03:44:56;16.45;;;14.93;;
11685;SDS011;5899;51.282;6.094;2022-10-18T03:47:20;16.63;;;14.95;;
11685;SDS011;5899;51.282;6.094;2022-10-18T03:50:03;16.92;;;15.38;;
11685;SDS011;5899;51.282;6.094;2022-10-18T03:52:41;15.98;;;14.63;;
11685;SDS011;5899;51.282;6.094;2022-10-18T04:06:59;16.00;;;14.60;;
11685;SDS011;5899;51.282;6.094;2022-10-18T04:09:29;16.20;;;14.80;;
11685;SDS011;5899;51.282;6.094;2022-10-18T04:12:48;15.77;;;14.27;;
11685;SDS011;5899;51.282;6.094;2022-10-18T04:14:57;16.15;;;14.80;;
11685;SDS011;5899;51.282;6.094;2022-10-18T04:17:46;16.00;;;14.70;;
11685;SDS011;5899;51.282;6.094;2022-10-18T04:23:33;17.00;;;15.32;;
11685;SDS011;5899;51.282;6.094;2022-10-18T04:26:09;17.95;;;16.35;;
11685;SDS011;5899;51.282;6.094;2022-10-18T04:29:01;17.50;;;16.00;;
11685;SDS011;5899;51.282;6.094;2022-10-18T04:31:30;16.63;;;15.23;;
11685;SDS011;5899;51.282;6.094;2022-10-18T04:34:21;16.40;;;15.07;;
11685;SDS011;5899;51.282;6.094;2022-10-18T04:36:51;20.43;;;18.53;;
11685;SDS011;5899;51.282;6.094;2022-10-18T04:39:34;15.25;;;14.05;;
11685;SDS011;5899;51.282;6.094;2022-10-18T04:44:58;17.33;;;15.82;;
11685;SDS011;5899;51.282;6.094;2022-10-18T04:47:40;17.20;;;15.80;;
11685;SDS011;5899;51.282;6.094;2022-10-18T04:50:27;16.40;;;14.70;;
11685;SDS011;5899;51.282;6.094;2022-10-18T04:53:45;16.13;;;14.82;;
11685;SDS011;5899;51.282;6.094;2022-10-18T04:56:22;17.58;;;16.08;;
11685;SDS011;5899;51.282;6.094;2022-10-18T04:58:49;17.58;;;16.08;;
11685;SDS011;5899;51.282;6.094;2022-10-18T05:01:22;17.20;;;15.70;;
11685;SDS011;5899;51.282;6.094;2022-10-18T05:04:19;20.97;;;18.97;;
11685;SDS011;5899;51.282;6.094;2022-10-18T05:06:56;22.67;;;20.60;;
11685;SDS011;5899;51.282;6.094;2022-10-18T05:10:29;19.70;;;18.02;;
11685;SDS011;5899;51.282;6.094;2022-10-18T05:12:29;21.35;;;19.50;;
11685;SDS011;5899;51.282;6.094;2022-10-18T05:15:52;21.05;;;19.33;;
11685;SDS011;5899;51.282;6.094;2022-10-18T05:18:20;19.92;;;18.33;;
11685;SDS011;5899;51.282;6.094;2022-10-18T05:21:03;20.10;;;18.30;;
11685;SDS011;5899;51.282;6.094;2022-10-18T05:23:41;21.65;;;19.70;;
11685;SDS011;5899;51.282;6.094;2022-10-18T05:26:15;21.58;;;19.67;;
11685;SDS011;5899;51.282;6.094;2022-10-18T05:29:07;18.58;;;17.08;;
11685;SDS011;5899;51.282;6.094;2022-10-18T05:31:36;20.00;;;18.40;;
11685;SDS011;5899;51.282;6.094;2022-10-18T05:34:21;18.80;;;17.10;;
11685;SDS011;5899;51.282;6.094;2022-10-18T05:37:07;20.58;;;18.77;;
11685;SDS011;5899;51.282;6.094;2022-10-18T05:44:32;17.52;;;16.13;;
11685;SDS011;5899;51.282;6.094;2022-10-18T06:03:36;21.98;;;20.10;;
11685;SDS011;5899;51.282;6.094;2022-10-18T06:06:04;21.77;;;19.77;;
11685;SDS011;5899;51.282;6.094;2022-10-18T06:08:31;22.40;;;20.35;;
11685;SDS011;5899;51.282;6.094;2022-10-18T06:11:04;21.97;;;20.03;;
11685;SDS011;5899;51.282;6.094;2022-10-18T06:13:56;21.95;;;20.05;;
11685;SDS011;5899;51.282;6.094;2022-10-18T06:16:29;23.15;;;21.10;;
11685;SDS011;5899;51.282;6.094;2022-10-18T06:19:01;22.65;;;20.55;;
11685;SDS011;5899;51.282;6.094;2022-10-18T06:21:29;21.50;;;19.70;;
11685;SDS011;5899;51.282;6.094;2022-10-18T06:25:03;22.98;;;20.88;;
11685;SDS011;5899;51.282;6.094;2022-10-18T06:27:16;23.58;;;21.38;;
11685;SDS011;5899;51.282;6.094;2022-10-18T06:29:46;22.60;;;20.63;;
11685;SDS011;5899;51.282;6.094;2022-10-18T06:32:15;23.20;;;21.10;;
11685;SDS011;5899;51.282;6.094;2022-10-18T06:35:11;21.70;;;19.77;;
11685;SDS011;5899;51.282;6.094;2022-10-18T06:38:00;24.20;;;21.92;;
11685;SDS011;5899;51.282;6.094;2022-10-18T06:40:47;23.92;;;21.52;;
11685;SDS011;5899;51.282;6.094;2022-10-18T06:43:29;23.10;;;21.05;;
11685;SDS011;5899;51.282;6.094;2022-10-18T06:46:09;26.30;;;23.83;;
11685;SDS011;5899;51.282;6.094;2022-10-18T06:48:46;25.35;;;23.05;;
11685;SDS011;5899;51.282;6.094;2022-10-18T06:51:24;34.50;;;30.92;;
11685;SDS011;5899;51.282;6.094;2022-10-18T06:54:06;32.15;;;29.02;;
11685;SDS011;5899;51.282;6.094;2022-10-18T06:56:40;37.28;;;33.30;;
11685;SDS011;5899;51.282;6.094;2022-10-18T06:59:15;31.75;;;28.77;;
11685;SDS011;5899;51.282;6.094;2022-10-18T07:01:42;33.60;;;30.13;;
11685;SDS011;5899;51.282;6.094;2022-10-18T07:04:13;35.00;;;31.25;;
11685;SDS011;5899;51.282;6.094;2022-10-18T07:06:41;35.80;;;31.88;;
11685;SDS011;5899;51.282;6.094;2022-10-18T07:09:07;40.78;;;34.10;;
11685;SDS011;5899;51.282;6.094;2022-10-18T07:12:07;52.50;;;38.97;;
11685;SDS011;5899;51.282;6.094;2022-10-18T07:14:36;36.70;;;32.30;;
11685;SDS011;5899;51.282;6.094;2022-10-18T07:17:07;34.85;;;31.13;;
11685;SDS011;5899;51.282;6.094;2022-10-18T07:19:34;41.72;;;35.30;;
11685;SDS011;5899;51.282;6.094;2022-10-18T07:22:02;35.15;;;31.58;;
11685;SDS011;5899;51.282;6.094;2022-10-18T07:24:30;44.33;;;36.63;;
11685;SDS011;5899;51.282;6.094;2022-10-18T07:26:59;46.50;;;37.08;;
11685;SDS011;5899;51.282;6.094;2022-10-18T07:29:27;46.78;;;37.88;;
11685;SDS011;5899;51.282;6.094;2022-10-18T07:31:57;61.87;;;42.73;;
11685;SDS011;5899;51.282;6.094;2022-10-18T07:34:26;34.60;;;30.98;;
11685;SDS011;5899;51.282;6.094;2022-10-18T07:36:53;39.08;;;33.25;;
11685;SDS011;5899;51.282;6.094;2022-10-18T07:39:19;38.73;;;34.53;;
11685;SDS011;5899;51.282;6.094;2022-10-18T07:41:46;39.20;;;34.92;;
11685;SDS011;5899;51.282;6.094;2022-10-18T07:44:14;56.50;;;40.90;;
11685;SDS011;5899;51.282;6.094;2022-10-18T07:46:42;49.30;;;40.03;;
11685;SDS011;5899;51.282;6.094;2022-10-18T07:49:09;51.92;;;41.05;;
11685;SDS011;5899;51.282;6.094;2022-10-18T07:51:35;41.28;;;35.80;;
11685;SDS011;5899;51.282;6.094;2022-10-18T07:54:02;41.63;;;34.08;;
11685;SDS011;5899;51.282;6.094;2022-10-18T07:56:30;43.10;;;36.90;;
11685;SDS011;5899;51.282;6.094;2022-10-18T07:58:57;51.17;;;39.83;;
11685;SDS011;5899;51.282;6.094;2022-10-18T08:01:23;38.80;;;34.83;;
11685;SDS011;5899;51.282;6.094;2022-10-18T08:03:52;43.55;;;37.00;;
11685;SDS011;5899;51.282;6.094;2022-10-18T08:06:19;52.92;;;41.33;;
11685;SDS011;5899;51.282;6.094;2022-10-18T08:08:46;46.63;;;39.38;;
11685;SDS011;5899;51.282;6.094;2022-10-18T08:11:13;49.08;;;40.08;;
11685;SDS011;5899;51.282;6.094;2022-10-18T08:13:41;53.67;;;41.47;;
11685;SDS011;5899;51.282;6.094;2022-10-18T08:16:09;57.67;;;42.85;;
11685;SDS011;5899;51.282;6.094;2022-10-18T08:18:36;49.10;;;40.83;;
11685;SDS011;5899;51.282;6.094;2022-10-18T08:21:06;53.92;;;41.35;;
11685;SDS011;5899;51.282;6.094;2022-10-18T08:23:34;47.17;;;40.08;;
11685;SDS011;5899;51.282;6.094;2022-10-18T08:26:05;53.20;;;39.95;;
11685;SDS011;5899;51.282;6.094;2022-10-18T08:28:31;47.13;;;37.75;;
11685;SDS011;5899;51.282;6.094;2022-10-18T08:31:01;41.53;;;34.75;;
11685;SDS011;5899;51.282;6.094;2022-10-18T08:33:27;41.08;;;34.25;;
11685;SDS011;5899;51.282;6.094;2022-10-18T08:35:54;46.03;;;36.28;;
11685;SDS011;5899;51.282;6.094;2022-10-18T08:38:22;44.22;;;35.78;;
11685;SDS011;5899;51.282;6.094;2022-10-18T08:40:48;47.95;;;37.03;;
11685;SDS011;5899;51.282;6.094;2022-10-18T08:43:16;42.47;;;35.97;;
11685;SDS011;5899;51.282;6.094;2022-10-18T08:45:43;50.75;;;39.15;;
11685;SDS011;5899;51.282;6.094;2022-10-18T08:48:15;49.90;;;36.88;;
11685;SDS011;5899;51.282;6.094;2022-10-18T08:50:43;47.15;;;37.20;;
11685;SDS011;5899;51.282;6.094;2022-10-18T08:53:12;48.33;;;38.40;;
11685;SDS011;5899;51.282;6.094;2022-10-18T08:55:43;57.90;;;41.55;;
11685;SDS011;5899;51.282;6.094;2022-10-18T08:58:13;51.42;;;38.97;;
11685;SDS011;5899;51.282;6.094;2022-10-18T09:00:43;43.65;;;36.58;;
11685;SDS011;5899;51.282;6.094;2022-10-18T09:03:15;43.95;;;37.78;;
11685;SDS011;5899;51.282;6.094;2022-10-18T09:05:44;45.15;;;38.22;;
11685;SDS011;5899;51.282;6.094;2022-10-18T09:08:17;48.30;;;39.78;;
11685;SDS011;5899;51.282;6.094;2022-10-18T09:10:55;57.00;;;42.33;;
11685;SDS011;5899;51.282;6.094;2022-10-18T09:16:12;45.10;;;37.40;;
11685;SDS011;5899;51.282;6.094;2022-10-18T09:18:45;37.70;;;33.67;;
11685;SDS011;5899;51.282;6.094;2022-10-18T09:21:16;39.10;;;34.40;;
11685;SDS011;5899;51.282;6.094;2022-10-18T09:23:45;40.97;;;35.30;;
11685;SDS011;5899;51.282;6.094;2022-10-18T09:26:14;50.42;;;39.00;;
11685;SDS011;5899;51.282;6.094;2022-10-18T09:28:46;51.13;;;38.80;;
11685;SDS011;5899;51.282;6.094;2022-10-18T09:31:17;46.97;;;36.80;;
11685;SDS011;5899;51.282;6.094;2022-10-18T09:33:47;39.85;;;34.45;;
11685;SDS011;5899;51.282;6.094;2022-10-18T09:36:16;39.13;;;33.67;;
11685;SDS011;5899;51.282;6.094;2022-10-18T09:38:45;44.60;;;37.00;;
11685;SDS011;5899;51.282;6.094;2022-10-18T09:41:17;46.17;;;37.25;;
11685;SDS011;5899;51.282;6.094;2022-10-18T09:43:46;55.78;;;41.58;;
11685;SDS011;5899;51.282;6.094;2022-10-18T09:46:14;51.88;;;40.28;;
11685;SDS011;5899;51.282;6.094;2022-10-18T09:48:43;46.53;;;38.17;;
11685;SDS011;5899;51.282;6.094;2022-10-18T09:51:13;45.10;;;37.20;;
11685;SDS011;5899;51.282;6.094;2022-10-18T09:53:42;51.43;;;38.47;;
11685;SDS011;5899;51.282;6.094;2022-10-18T09:56:13;50.17;;;38.03;;
11685;SDS011;5899;51.282;6.094;2022-10-18T09:58:42;53.53;;;38.87;;
11685;SDS011;5899;51.282;6.094;2022-10-18T10:01:11;48.33;;;38.75;;
11685;SDS011;5899;51.282;6.094;2022-10-18T10:03:38;47.92;;;38.20;;
11685;SDS011;5899;51.282;6.094;2022-10-18T10:06:21;50.30;;;39.97;;
11685;SDS011;5899;51.282;6.094;2022-10-18T10:08:57;46.63;;;38.20;;
11685;SDS011;5899;51.282;6.094;2022-10-18T10:11:27;46.92;;;37.95;;
11685;SDS011;5899;51.282;6.094;2022-10-18T10:13:57;53.58;;;40.50;;
11685;SDS011;5899;51.282;6.094;2022-10-18T10:16:24;50.22;;;38.40;;
11685;SDS011;5899;51.282;6.094;2022-10-18T10:18:52;41.38;;;36.10;;
11685;SDS011;5899;51.282;6.094;2022-10-18T10:21:21;40.40;;;34.05;;
11685;SDS011;5899;51.282;6.094;2022-10-18T10:23:50;46.03;;;36.58;;
11685;SDS011;5899;51.282;6.094;2022-10-18T10:26:21;44.77;;;36.83;;
11685;SDS011;5899;51.282;6.094;2022-10-18T10:28:50;46.53;;;37.10;;
11685;SDS011;5899;51.282;6.094;2022-10-18T10:31:25;45.53;;;36.70;;
11685;SDS011;5899;51.282;6.094;2022-10-18T10:33:57;38.90;;;33.43;;
11685;SDS011;5899;51.282;6.094;2022-10-18T10:36:23;41.20;;;34.13;;
11685;SDS011;5899;51.282;6.094;2022-10-18T10:39:01;43.90;;;35.80;;
11685;SDS011;5899;51.282;6.094;2022-10-18T10:41:30;41.37;;;34.67;;
11685;SDS011;5899;51.282;6.094;2022-10-18T10:43:57;45.72;;;36.13;;
11685;SDS011;5899;51.282;6.094;2022-10-18T10:46:33;40.72;;;34.70;;
11685;SDS011;5899;51.282;6.094;2022-10-18T10:49:00;42.63;;;36.60;;
11685;SDS011;5899;51.282;6.094;2022-10-18T10:51:33;44.83;;;37.15;;
11685;SDS011;5899;51.282;6.094;2022-10-18T10:54:01;41.10;;;35.42;;
11685;SDS011;5899;51.282;6.094;2022-10-18T10:56:30;43.53;;;35.78;;
11685;SDS011;5899;51.282;6.094;2022-10-18T10:59:05;43.40;;;34.55;;
11685;SDS011;5899;51.282;6.094;2022-10-18T11:01:36;38.33;;;34.05;;
11685;SDS011;5899;51.282;6.094;2022-10-18T11:04:20;40.80;;;34.17;;
11685;SDS011;5899;51.282;6.094;2022-10-18T11:06:51;37.97;;;33.28;;
11685;SDS011;5899;51.282;6.094;2022-10-18T11:09:24;39.97;;;34.85;;
11685;SDS011;5899;51.282;6.094;2022-10-18T11:11:55;41.25;;;34.42;;
11685;SDS011;5899;51.282;6.094;2022-10-18T11:14:28;38.50;;;34.22;;
11685;SDS011;5899;51.282;6.094;2022-10-18T11:16:57;40.50;;;34.63;;
11685;SDS011;5899;51.282;6.094;2022-10-18T11:19:31;40.05;;;34.38;;
11685;SDS011;5899;51.282;6.094;2022-10-18T11:22:00;37.20;;;32.75;;
11685;SDS011;5899;51.282;6.094;2022-10-18T11:24:31;40.25;;;34.67;;
11685;SDS011;5899;51.282;6.094;2022-10-18T11:27:00;38.60;;;33.22;;
11685;SDS011;5899;51.282;6.094;2022-10-18T11:29:40;40.50;;;33.83;;
11685;SDS011;5899;51.282;6.094;2022-10-18T11:32:12;39.45;;;33.33;;
11685;SDS011;5899;51.282;6.094;2022-10-18T11:34:52;36.40;;;31.77;;
11685;SDS011;5899;51.282;6.094;2022-10-18T11:37:32;40.83;;;32.20;;
11685;SDS011;5899;51.282;6.094;2022-10-18T11:40:09;36.38;;;31.55;;
11685;SDS011;5899;51.282;6.094;2022-10-18T11:42:40;38.38;;;32.10;;
11685;SDS011;5899;51.282;6.094;2022-10-18T11:45:19;38.28;;;34.17;;
11685;SDS011;5899;51.282;6.094;2022-10-18T11:47:55;38.38;;;33.25;;
11685;SDS011;5899;51.282;6.094;2022-10-18T11:50:33;39.13;;;33.50;;
11685;SDS011;5899;51.282;6.094;2022-10-18T11:53:04;39.40;;;34.67;;
11685;SDS011;5899;51.282;6.094;2022-10-18T11:55:36;39.13;;;34.60;;
11685;SDS011;5899;51.282;6.094;2022-10-18T11:58:13;41.17;;;35.17;;
11685;SDS011;5899;51.282;6.094;2022-10-18T12:00:49;39.33;;;34.53;;
11685;SDS011;5899;51.282;6.094;2022-10-18T12:03:23;40.53;;;35.42;;
11685;SDS011;5899;51.282;6.094;2022-10-18T12:05:54;40.28;;;32.35;;
11685;SDS011;5899;51.282;6.094;2022-10-18T12:08:25;37.10;;;30.53;;
11685;SDS011;5899;51.282;6.094;2022-10-18T12:10:54;37.53;;;30.83;;
11685;SDS011;5899;51.282;6.094;2022-10-18T12:13:24;34.65;;;30.27;;
11685;SDS011;5899;51.282;6.094;2022-10-18T12:15:57;36.90;;;31.43;;
11685;SDS011;5899;51.282;6.094;2022-10-18T12:21:09;38.10;;;31.92;;
11685;SDS011;5899;51.282;6.094;2022-10-18T12:23:41;37.05;;;32.58;;
11685;SDS011;5899;51.282;6.094;2022-10-18T12:26:13;35.47;;;30.10;;
11685;SDS011;5899;51.282;6.094;2022-10-18T12:28:47;37.40;;;30.60;;
11685;SDS011;5899;51.282;6.094;2022-10-18T12:31:30;36.88;;;32.22;;
11685;SDS011;5899;51.282;6.094;2022-10-18T12:34:03;35.95;;;29.17;;
11685;SDS011;5899;51.282;6.094;2022-10-18T12:36:40;33.03;;;27.23;;
11685;SDS011;5899;51.282;6.094;2022-10-18T12:39:16;31.75;;;27.48;;
11685;SDS011;5899;51.282;6.094;2022-10-18T12:41:46;36.13;;;30.08;;
11685;SDS011;5899;51.282;6.094;2022-10-18T12:44:17;31.38;;;27.90;;
11685;SDS011;5899;51.282;6.094;2022-10-18T12:46:45;37.42;;;31.15;;
11685;SDS011;5899;51.282;6.094;2022-10-18T12:49:13;32.28;;;28.10;;
11685;SDS011;5899;51.282;6.094;2022-10-18T12:51:49;34.17;;;29.20;;
11685;SDS011;5899;51.282;6.094;2022-10-18T12:54:18;31.45;;;27.85;;
11685;SDS011;5899;51.282;6.094;2022-10-18T12:56:46;32.30;;;26.45;;
11685;SDS011;5899;51.282;6.094;2022-10-18T13:02:07;31.88;;;25.23;;
11685;SDS011;5899;51.282;6.094;2022-10-18T13:04:35;30.40;;;24.67;;
11685;SDS011;5899;51.282;6.094;2022-10-18T13:15:43;26.03;;;21.10;;
11685;SDS011;5899;51.282;6.094;2022-10-18T13:18:16;28.83;;;21.17;;
11685;SDS011;5899;51.282;6.094;2022-10-18T13:20:46;26.75;;;21.95;;
11685;SDS011;5899;51.282;6.094;2022-10-18T13:23:24;28.23;;;21.65;;
11685;SDS011;5899;51.282;6.094;2022-10-18T13:25:56;25.08;;;22.20;;
11685;SDS011;5899;51.282;6.094;2022-10-18T13:28:27;29.15;;;22.15;;
11685;SDS011;5899;51.282;6.094;2022-10-18T13:31:01;27.65;;;21.90;;
11685;SDS011;5899;51.282;6.094;2022-10-18T13:33:41;26.98;;;21.67;;
11685;SDS011;5899;51.282;6.094;2022-10-18T13:36:18;28.27;;;24.00;;
11685;SDS011;5899;51.282;6.094;2022-10-18T13:38:59;25.50;;;22.23;;
11685;SDS011;5899;51.282;6.094;2022-10-18T13:41:27;23.83;;;21.15;;
11685;SDS011;5899;51.282;6.094;2022-10-18T13:44:07;25.40;;;21.83;;
11685;SDS011;5899;51.282;6.094;2022-10-18T13:49:30;25.25;;;21.73;;
11685;SDS011;5899;51.282;6.094;2022-10-18T13:52:01;27.63;;;22.55;;
11685;SDS011;5899;51.282;6.094;2022-10-18T13:54:41;25.08;;;21.98;;
11685;SDS011;5899;51.282;6.094;2022-10-18T13:57:12;26.05;;;21.67;;
11685;SDS011;5899;51.282;6.094;2022-10-18T13:59:52;25.17;;;22.38;;
11685;SDS011;5899;51.282;6.094;2022-10-18T14:05:10;26.58;;;22.20;;
11685;SDS011;5899;51.282;6.094;2022-10-18T14:07:40;23.03;;;20.57;;
11685;SDS011;5899;51.282;6.094;2022-10-18T14:10:09;25.30;;;21.10;;
11685;SDS011;5899;51.282;6.094;2022-10-18T14:12:39;23.27;;;17.13;;
11685;SDS011;5899;51.282;6.094;2022-10-18T14:15:06;19.25;;;16.33;;
11685;SDS011;5899;51.282;6.094;2022-10-18T14:17:37;24.73;;;16.10;;
11685;SDS011;5899;51.282;6.094;2022-10-18T14:20:12;19.70;;;16.00;;
11685;SDS011;5899;51.282;6.094;2022-10-18T14:22:42;21.27;;;15.65;;
11685;SDS011;5899;51.282;6.094;2022-10-18T14:25:25;19.17;;;14.70;;
11685;SDS011;5899;51.282;6.094;2022-10-18T14:28:05;19.83;;;14.85;;
11685;SDS011;5899;51.282;6.094;2022-10-18T14:30:31;20.85;;;15.93;;
11685;SDS011;5899;51.282;6.094;2022-10-18T14:33:21;17.90;;;13.73;;
11685;SDS011;5899;51.282;6.094;2022-10-18T14:35:58;19.83;;;15.05;;
11685;SDS011;5899;51.282;6.094;2022-10-18T14:38:30;21.23;;;15.68;;
11685;SDS011;5899;51.282;6.094;2022-10-18T14:41:05;16.38;;;12.90;;
11685;SDS011;5899;51.282;6.094;2022-10-18T14:43:39;16.17;;;12.52;;
11685;SDS011;5899;51.282;6.094;2022-10-18T14:46:16;15.10;;;11.05;;
11685;SDS011;5899;51.282;6.094;2022-10-18T14:48:52;14.23;;;7.80;;
11685;SDS011;5899;51.282;6.094;2022-10-18T14:51:23;11.93;;;6.43;;
11685;SDS011;5899;51.282;6.094;2022-10-18T14:53:52;12.02;;;5.85;;
11685;SDS011;5899;51.282;6.094;2022-10-18T14:56:25;13.25;;;6.50;;
11685;SDS011;5899;51.282;6.094;2022-10-18T14:58:54;11.80;;;5.97;;
11685;SDS011;5899;51.282;6.094;2022-10-18T15:01:27;12.35;;;6.32;;
11685;SDS011;5899;51.282;6.094;2022-10-18T15:04:01;13.55;;;5.90;;
11685;SDS011;5899;51.282;6.094;2022-10-18T15:06:33;9.47;;;5.50;;
11685;SDS011;5899;51.282;6.094;2022-10-18T15:09:00;10.32;;;5.57;;
11685;SDS011;5899;51.282;6.094;2022-10-18T15:11:28;10.25;;;5.25;;
11685;SDS011;5899;51.282;6.094;2022-10-18T15:13:56;11.73;;;5.78;;
11685;SDS011;5899;51.282;6.094;2022-10-18T15:16:24;9.43;;;5.93;;
11685;SDS011;5899;51.282;6.094;2022-10-18T15:19:02;9.90;;;5.45;;
11685;SDS011;5899;51.282;6.094;2022-10-18T15:21:47;11.23;;;6.43;;
11685;SDS011;5899;51.282;6.094;2022-10-18T15:24:17;10.97;;;6.00;;
11685;SDS011;5899;51.282;6.094;2022-10-18T15:26:44;11.07;;;5.82;;
11685;SDS011;5899;51.282;6.094;2022-10-18T15:29:15;10.63;;;5.43;;
11685;SDS011;5899;51.282;6.094;2022-10-18T15:31:43;9.27;;;5.05;;
11685;SDS011;5899;51.282;6.094;2022-10-18T15:34:15;8.57;;;4.15;;
11685;SDS011;5899;51.282;6.094;2022-10-18T15:36:45;8.02;;;4.00;;
11685;SDS011;5899;51.282;6.094;2022-10-18T15:39:13;8.60;;;4.00;;
11685;SDS011;5899;51.282;6.094;2022-10-18T15:41:44;7.20;;;3.55;;
11685;SDS011;5899;51.282;6.094;2022-10-18T15:44:18;9.00;;;3.80;;
11685;SDS011;5899;51.282;6.094;2022-10-18T15:46:48;6.87;;;3.23;;
11685;SDS011;5899;51.282;6.094;2022-10-18T15:54:58;7.07;;;3.10;;
11685;SDS011;5899;51.282;6.094;2022-10-18T15:57:25;6.57;;;2.75;;
11685;SDS011;5899;51.282;6.094;2022-10-18T16:00:01;8.05;;;2.90;;
11685;SDS011;5899;51.282;6.094;2022-10-18T16:02:28;7.78;;;2.53;;
11685;SDS011;5899;51.282;6.094;2022-10-18T16:04:57;5.78;;;2.80;;
11685;SDS011;5899;51.282;6.094;2022-10-18T16:07:26;6.63;;;2.92;;
11685;SDS011;5899;51.282;6.094;2022-10-18T16:09:52;8.05;;;3.15;;
11685;SDS011;5899;51.282;6.094;2022-10-18T16:12:21;6.03;;;2.72;;
11685;SDS011;5899;51.282;6.094;2022-10-18T16:14:47;5.63;;;2.80;;
11685;SDS011;5899;51.282;6.094;2022-10-18T16:17:14;6.32;;;2.90;;
11685;SDS011;5899;51.282;6.094;2022-10-18T16:19:41;6.50;;;3.13;;
11685;SDS011;5899;51.282;6.094;2022-10-18T16:22:08;7.60;;;3.70;;
11685;SDS011;5899;51.282;6.094;2022-10-18T16:24:44;8.00;;;3.77;;
11685;SDS011;5899;51.282;6.094;2022-10-18T16:27:12;7.90;;;3.25;;
11685;SDS011;5899;51.282;6.094;2022-10-18T16:29:45;8.90;;;4.37;;
11685;SDS011;5899;51.282;6.094;2022-10-18T16:32:12;8.40;;;4.22;;
11685;SDS011;5899;51.282;6.094;2022-10-18T16:34:41;7.33;;;3.50;;
11685;SDS011;5899;51.282;6.094;2022-10-18T16:37:14;7.20;;;3.30;;
11685;SDS011;5899;51.282;6.094;2022-10-18T16:39:54;9.98;;;3.60;;
11685;SDS011;5899;51.282;6.094;2022-10-18T16:42:21;8.13;;;3.90;;
11685;SDS011;5899;51.282;6.094;2022-10-18T16:44:58;9.00;;;3.70;;
11685;SDS011;5899;51.282;6.094;2022-10-18T16:47:26;8.57;;;3.35;;
11685;SDS011;5899;51.282;6.094;2022-10-18T16:49:53;6.28;;;3.05;;
11685;SDS011;5899;51.282;6.094;2022-10-18T16:52:19;6.38;;;2.90;;
11685;SDS011;5899;51.282;6.094;2022-10-18T16:54:46;7.60;;;2.80;;
11685;SDS011;5899;51.282;6.094;2022-10-18T16:57:12;6.85;;;2.88;;
11685;SDS011;5899;51.282;6.094;2022-10-18T16:59:39;11.30;;;3.28;;
11685;SDS011;5899;51.282;6.094;2022-10-18T17:02:11;7.60;;;2.95;;
11685;SDS011;5899;51.282;6.094;2022-10-18T17:04:37;6.57;;;2.78;;
11685;SDS011;5899;51.282;6.094;2022-10-18T17:07:04;7.63;;;3.10;;
11685;SDS011;5899;51.282;6.094;2022-10-18T17:09:36;6.65;;;2.97;;
11685;SDS011;5899;51.282;6.094;2022-10-18T17:12:03;7.88;;;3.10;;
11685;SDS011;5899;51.282;6.094;2022-10-18T17:14:34;6.35;;;3.22;;
11685;SDS011;5899;51.282;6.094;2022-10-18T17:17:16;10.63;;;3.83;;
11685;SDS011;5899;51.282;6.094;2022-10-18T17:19:42;5.68;;;3.00;;
11685;SDS011;5899;51.282;6.094;2022-10-18T17:22:09;7.15;;;3.40;;
11685;SDS011;5899;51.282;6.094;2022-10-18T17:24:37;6.07;;;3.40;;
11685;SDS011;5899;51.282;6.094;2022-10-18T17:27:09;7.33;;;3.60;;
11685;SDS011;5899;51.282;6.094;2022-10-18T17:29:41;7.28;;;3.50;;
11685;SDS011;5899;51.282;6.094;2022-10-18T17:32:14;8.77;;;3.53;;
11685;SDS011;5899;51.282;6.094;2022-10-18T17:34:48;11.40;;;8.25;;
11685;SDS011;5899;51.282;6.094;2022-10-18T17:37:20;10.75;;;4.93;;
11685;SDS011;5899;51.282;6.094;2022-10-18T17:39:48;9.50;;;6.50;;